sensor_id;sensor_type;location;lat;lon;timestamp;pressure;altitude;pressure_sealevel;temperature;humidity
6389;BME280;3227;42.654;23.360;2022-12-07T00:00:18;94395.69;;;7.96;90.85
6389;BME280;3227;42.654;23.360;2022-12-07T00:02:45;94411.06;;;8.09;90.16
6389;BME280;3227;42.654;23.360;2022-12-07T00:05:12;94411.91;;;8.09;90.64
6389;BME280;3227;42.654;23.360;2022-12-07T00:07:40;94418.75;;;8.12;90.43
6389;BME280;3227;42.654;23.360;2022-12-07T00:10:07;94347.00;;;7.69;90.25
6389;BME280;3227;42.654;23.360;2022-12-07T00:12:34;94407.66;;;8.08;90.69
6389;BME280;3227;42.654;23.360;2022-12-07T00:15:01;94408.50;;;8.06;90.73
6389;BME280;3227;42.654;23.360;2022-12-07T00:17:28;94416.16;;;8.04;90.88
6389;BME280;3227;42.654;23.360;2022-12-07T00:19:55;94405.09;;;8.03;90.64
6389;BME280;3227;42.654;23.360;2022-12-07T00:22:22;94376.91;;;7.88;90.75
6389;BME280;3227;42.654;23.360;2022-12-07T00:24:50;94400.00;;;8.05;90.64
6389;BME280;3227;42.654;23.360;2022-12-07T00:27:17;94380.31;;;7.89;91.02
6389;BME280;3227;42.654;23.360;2022-12-07T00:29:44;94394.00;;;8.00;90.86
6389;BME280;3227;42.654;23.360;2022-12-07T00:32:10;94399.97;;;8.02;90.37
6389;BME280;3227;42.654;23.360;2022-12-07T00:34:37;94402.47;;;7.99;90.52
6389;BME280;3227;42.654;23.360;2022-12-07T00:37:04;94402.50;;;7.97;90.87
6389;BME280;3227;42.654;23.360;2022-12-07T00:39:31;94420.34;;;7.99;90.41
6389;BME280;3227;42.654;23.360;2022-12-07T00:41:59;94404.13;;;7.89;90.81
6389;BME280;3227;42.654;23.360;2022-12-07T00:44:26;94387.91;;;7.84;91.14
6389;BME280;3227;42.654;23.360;2022-12-07T00:46:52;94343.53;;;7.61;91.14
6389;BME280;3227;42.654;23.360;2022-12-07T00:49:21;94361.53;;;7.78;92.00
6389;BME280;3227;42.654;23.360;2022-12-07T00:51:48;94397.41;;;8.00;91.26
6389;BME280;3227;42.654;23.360;2022-12-07T00:54:15;94392.31;;;8.02;91.30
6389;BME280;3227;42.654;23.360;2022-12-07T00:56:41;94388.03;;;7.96;91.17
6389;BME280;3227;42.654;23.360;2022-12-07T00:59:13;94392.25;;;7.94;90.75
6389;BME280;3227;42.654;23.360;2022-12-07T01:01:40;94402.44;;;7.91;91.60
6389;BME280;3227;42.654;23.360;2022-12-07T01:04:07;94369.97;;;7.71;91.42
6389;BME280;3227;42.654;23.360;2022-12-07T01:06:39;94364.91;;;7.77;92.01
6389;BME280;3227;42.654;23.360;2022-12-07T01:09:06;94401.63;;;7.95;91.22
6389;BME280;3227;42.654;23.360;2022-12-07T01:11:33;94402.47;;;7.99;91.29
6389;BME280;3227;42.654;23.360;2022-12-07T01:14:00;94382.06;;;7.96;91.25
6389;BME280;3227;42.654;23.360;2022-12-07T01:16:30;94384.63;;;8.00;91.13
6389;BME280;3227;42.654;23.360;2022-12-07T01:18:58;94349.53;;;7.68;90.91
6389;BME280;3227;42.654;23.360;2022-12-07T01:21:27;94372.63;;;7.84;91.51
6389;BME280;3227;42.654;23.360;2022-12-07T01:23:57;94369.22;;;7.82;91.84
6389;BME280;3227;42.654;23.360;2022-12-07T01:26:24;94378.59;;;7.88;91.57
6389;BME280;3227;42.654;23.360;2022-12-07T01:28:52;94380.38;;;7.98;91.99
6389;BME280;3227;42.654;23.360;2022-12-07T01:31:21;94376.16;;;8.01;92.41
6389;BME280;3227;42.654;23.360;2022-12-07T01:33:52;94358.25;;;7.94;91.68
6389;BME280;3227;42.654;23.360;2022-12-07T01:36:21;94381.28;;;8.05;91.17
6389;BME280;3227;42.654;23.360;2022-12-07T01:38:50;94371.06;;;8.03;91.63
6389;BME280;3227;42.654;23.360;2022-12-07T01:41:19;94380.44;;;8.04;91.05
6389;BME280;3227;42.654;23.360;2022-12-07T01:44:12;94379.56;;;8.03;91.04
6389;BME280;3227;42.654;23.360;2022-12-07T01:46:40;94385.50;;;8.02;90.63
6389;BME280;3227;42.654;23.360;2022-12-07T01:49:12;94382.06;;;7.99;91.09
6389;BME280;3227;42.654;23.360;2022-12-07T01:51:40;94383.72;;;7.91;91.58
6389;BME280;3227;42.654;23.360;2022-12-07T01:54:09;94381.16;;;7.88;91.74
6389;BME280;3227;42.654;23.360;2022-12-07T01:56:38;94373.50;;;7.88;91.84
6389;BME280;3227;42.654;23.360;2022-12-07T01:59:06;94370.94;;;7.86;91.40
6389;BME280;3227;42.654;23.360;2022-12-07T02:01:33;94370.91;;;7.80;91.99
6389;BME280;3227;42.654;23.360;2022-12-07T02:03:59;94364.06;;;7.76;92.40
6389;BME280;3227;42.654;23.360;2022-12-07T02:06:28;94333.28;;;7.53;92.81
6389;BME280;3227;42.654;23.360;2022-12-07T02:08:56;94356.38;;;7.72;92.92
6389;BME280;3227;42.654;23.360;2022-12-07T02:11:23;94354.66;;;7.71;92.86
6389;BME280;3227;42.654;23.360;2022-12-07T02:13:50;94351.22;;;7.67;93.05
6389;BME280;3227;42.654;23.360;2022-12-07T02:16:25;94358.88;;;7.66;93.25
6389;BME280;3227;42.654;23.360;2022-12-07T02:19:04;94359.69;;;7.61;93.59
6389;BME280;3227;42.654;23.360;2022-12-07T02:21:42;94367.38;;;7.64;93.32
6389;BME280;3227;42.654;23.360;2022-12-07T02:24:17;94369.94;;;7.68;92.93
6389;BME280;3227;42.654;23.360;2022-12-07T02:30:03;94364.03;;;7.75;92.98
6389;BME280;3227;42.654;23.360;2022-12-07T02:32:40;94351.31;;;7.78;92.69
6389;BME280;3227;42.654;23.360;2022-12-07T02:35:11;94294.13;;;7.47;93.09
6389;BME280;3227;42.654;23.360;2022-12-07T02:37:48;94329.97;;;7.67;92.78
6389;BME280;3227;42.654;23.360;2022-12-07T02:40:20;94336.84;;;7.72;92.77
6389;BME280;3227;42.654;23.360;2022-12-07T02:42:52;94343.66;;;7.78;92.45
6389;BME280;3227;42.654;23.360;2022-12-07T02:45:25;94341.06;;;7.72;92.68
6389;BME280;3227;42.654;23.360;2022-12-07T02:47:56;94350.38;;;7.68;92.80
6389;BME280;3227;42.654;23.360;2022-12-07T02:50:26;94346.09;;;7.61;93.30
6389;BME280;3227;42.654;23.360;2022-12-07T02:52:53;94356.31;;;7.62;93.29
6389;BME280;3227;42.654;23.360;2022-12-07T02:55:24;94354.63;;;7.64;92.86
6389;BME280;3227;42.654;23.360;2022-12-07T02:58:02;94354.63;;;7.68;92.77
6389;BME280;3227;42.654;23.360;2022-12-07T03:00:39;94344.44;;;7.64;92.87
6389;BME280;3227;42.654;23.360;2022-12-07T03:03:10;94344.44;;;7.68;92.99
6389;BME280;3227;42.654;23.360;2022-12-07T03:05:54;94334.25;;;7.71;92.66
6389;BME280;3227;42.654;23.360;2022-12-07T03:08:33;94306.94;;;7.53;92.45
6389;BME280;3227;42.654;23.360;2022-12-07T03:11:06;94330.84;;;7.66;92.67
6389;BME280;3227;42.654;23.360;2022-12-07T03:13:39;94314.63;;;7.57;92.41
6389;BME280;3227;42.654;23.360;2022-12-07T03:16:14;94305.16;;;7.44;92.62
6389;BME280;3227;42.654;23.360;2022-12-07T03:18:47;94273.53;;;7.19;93.17
6389;BME280;3227;42.654;23.360;2022-12-07T03:21:18;94328.94;;;7.40;93.75
6389;BME280;3227;42.654;23.360;2022-12-07T03:23:48;94328.03;;;7.35;93.65
6389;BME280;3227;42.654;23.360;2022-12-07T03:26:17;94321.28;;;7.43;93.41
6389;BME280;3227;42.654;23.360;2022-12-07T03:28:49;94310.16;;;7.34;93.81
6389;BME280;3227;42.654;23.360;2022-12-07T03:31:22;94331.50;;;7.43;93.19
6389;BME280;3227;42.654;23.360;2022-12-07T03:33:55;94327.19;;;7.36;93.29
6389;BME280;3227;42.654;23.360;2022-12-07T03:36:28;94339.06;;;7.34;93.35
6389;BME280;3227;42.654;23.360;2022-12-07T03:39:02;94324.53;;;7.27;93.45
6389;BME280;3227;42.654;23.360;2022-12-07T03:41:31;94327.09;;;7.27;93.10
6389;BME280;3227;42.654;23.360;2022-12-07T03:43:59;94292.88;;;6.99;93.22
6389;BME280;3227;42.654;23.360;2022-12-07T03:46:35;94321.13;;;7.23;93.59
6389;BME280;3227;42.654;23.360;2022-12-07T03:49:08;94323.72;;;7.28;94.20
6389;BME280;3227;42.654;23.360;2022-12-07T03:51:43;94322.91;;;7.34;93.69
6389;BME280;3227;42.654;23.360;2022-12-07T03:54:16;94326.38;;;7.42;93.56
6389;BME280;3227;42.654;23.360;2022-12-07T03:56:45;94315.38;;;7.47;92.91
6389;BME280;3227;42.654;23.360;2022-12-07T03:59:15;94316.25;;;7.51;92.90
6389;BME280;3227;42.654;23.360;2022-12-07T04:01:47;94317.09;;;7.48;92.79
6389;BME280;3227;42.654;23.360;2022-12-07T04:04:18;94318.81;;;7.52;92.41
6389;BME280;3227;42.654;23.360;2022-12-07T04:06:44;94322.16;;;7.45;92.50
6389;BME280;3227;42.654;23.360;2022-12-07T04:09:11;94317.06;;;7.45;92.54
6389;BME280;3227;42.654;23.360;2022-12-07T04:11:39;94300.84;;;7.36;92.60
6389;BME280;3227;42.654;23.360;2022-12-07T04:14:06;94311.94;;;7.42;92.68
6389;BME280;3227;42.654;23.360;2022-12-07T04:16:50;94317.03;;;7.39;93.24
6389;BME280;3227;42.654;23.360;2022-12-07T04:19:19;94309.34;;;7.38;93.01
6389;BME280;3227;42.654;23.360;2022-12-07T04:21:46;94305.13;;;7.40;93.02
6389;BME280;3227;42.654;23.360;2022-12-07T04:24:14;94312.78;;;7.40;92.72
6389;BME280;3227;42.654;23.360;2022-12-07T04:26:41;94319.50;;;7.33;92.90
6389;BME280;3227;42.654;23.360;2022-12-07T04:29:08;94314.38;;;7.30;92.29
6389;BME280;3227;42.654;23.360;2022-12-07T04:31:36;94318.59;;;7.26;92.18
6389;BME280;3227;42.654;23.360;2022-12-07T04:34:05;94323.69;;;7.26;92.28
6389;BME280;3227;42.654;23.360;2022-12-07T04:36:32;94313.50;;;7.26;92.10
6389;BME280;3227;42.654;23.360;2022-12-07T04:38:59;94318.56;;;7.25;92.27
6389;BME280;3227;42.654;23.360;2022-12-07T04:41:27;94321.13;;;7.23;92.44
6389;BME280;3227;42.654;23.360;2022-12-07T04:43:54;94328.72;;;7.19;92.53
6389;BME280;3227;42.654;23.360;2022-12-07T04:46:22;94333.03;;;7.24;92.95
6389;BME280;3227;42.654;23.360;2022-12-07T04:48:49;94325.38;;;7.23;93.26
6389;BME280;3227;42.654;23.360;2022-12-07T04:51:20;94339.78;;;7.21;92.89
6389;BME280;3227;42.654;23.360;2022-12-07T04:53:47;94323.56;;;7.13;92.13
6389;BME280;3227;42.654;23.360;2022-12-07T04:56:20;94272.25;;;6.73;92.19
6389;BME280;3227;42.654;23.360;2022-12-07T04:58:48;94326.91;;;7.09;92.11
6389;BME280;3227;42.654;23.360;2022-12-07T05:01:16;94328.59;;;7.05;92.48
6389;BME280;3227;42.654;23.360;2022-12-07T05:03:43;94258.50;;;6.59;92.82
6389;BME280;3227;42.654;23.360;2022-12-07T05:06:10;94308.94;;;6.94;92.76
6389;BME280;3227;42.654;23.360;2022-12-07T05:08:40;94336.22;;;7.04;92.23
6389;BME280;3227;42.654;23.360;2022-12-07T05:11:07;94329.41;;;7.00;92.37
6389;BME280;3227;42.654;23.360;2022-12-07T05:13:35;94330.28;;;7.05;92.46
6389;BME280;3227;42.654;23.360;2022-12-07T05:16:02;94320.03;;;6.99;92.70
6389;BME280;3227;42.654;23.360;2022-12-07T05:18:29;94314.00;;;6.89;92.68
6389;BME280;3227;42.654;23.360;2022-12-07T05:20:56;94341.28;;;7.02;91.81
6389;BME280;3227;42.654;23.360;2022-12-07T05:23:23;94335.34;;;7.02;92.25
6389;BME280;3227;42.654;23.360;2022-12-07T05:25:51;94304.66;;;6.90;92.69
6389;BME280;3227;42.654;23.360;2022-12-07T05:28:18;94331.19;;;7.11;93.25
6389;BME280;3227;42.654;23.360;2022-12-07T05:30:45;94328.72;;;7.16;93.52
6389;BME280;3227;42.654;23.360;2022-12-07T05:33:12;94333.81;;;7.16;92.56
6389;BME280;3227;42.654;23.360;2022-12-07T05:35:39;94338.84;;;7.13;92.60
6389;BME280;3227;42.654;23.360;2022-12-07T05:38:06;94338.84;;;7.13;92.38
6389;BME280;3227;42.654;23.360;2022-12-07T05:40:32;94336.34;;;7.16;92.70
6389;BME280;3227;42.654;23.360;2022-12-07T05:43:00;94325.31;;;7.15;93.09
6389;BME280;3227;42.654;23.360;2022-12-07T05:45:26;94294.63;;;7.05;92.83
6389;BME280;3227;42.654;23.360;2022-12-07T05:47:53;94322.00;;;7.24;92.61
6389;BME280;3227;42.654;23.360;2022-12-07T05:50:20;94323.72;;;7.28;92.40
6389;BME280;3227;42.654;23.360;2022-12-07T05:52:47;94328.84;;;7.31;91.60
6389;BME280;3227;42.654;23.360;2022-12-07T05:55:14;94286.19;;;7.12;91.09
6389;BME280;3227;42.654;23.360;2022-12-07T05:57:40;94312.69;;;7.31;90.75
6389;BME280;3227;42.654;23.360;2022-12-07T06:00:29;94323.78;;;7.33;90.21
6389;BME280;3227;42.654;23.360;2022-12-07T06:02:55;94323.78;;;7.33;90.70
6389;BME280;3227;42.654;23.360;2022-12-07T06:05:22;94318.63;;;7.30;91.16
6389;BME280;3227;42.654;23.360;2022-12-07T06:07:49;94321.22;;;7.34;91.41
6389;BME280;3227;42.654;23.360;2022-12-07T06:10:16;94314.41;;;7.32;91.12
6389;BME280;3227;42.654;23.360;2022-12-07T06:12:42;94301.38;;;7.03;92.33
6389;BME280;3227;42.654;23.360;2022-12-07T06:15:11;94332.94;;;7.15;93.19
6389;BME280;3227;42.654;23.360;2022-12-07T06:17:39;94321.13;;;7.22;92.92
6389;BME280;3227;42.654;23.360;2022-12-07T06:20:07;94327.09;;;7.24;93.11
6389;BME280;3227;42.654;23.360;2022-12-07T06:22:34;94328.81;;;7.28;93.80
6389;BME280;3227;42.654;23.360;2022-12-07T06:25:01;94325.50;;;7.37;93.38
6389;BME280;3227;42.654;23.360;2022-12-07T06:27:39;94334.09;;;7.48;92.79
6389;BME280;3227;42.654;23.360;2022-12-07T06:30:06;94331.63;;;7.57;92.38
6389;BME280;3227;42.654;23.360;2022-12-07T06:32:34;94336.78;;;7.64;92.32
6389;BME280;3227;42.654;23.360;2022-12-07T06:35:02;94337.69;;;7.73;91.66
6389;BME280;3227;42.654;23.360;2022-12-07T06:37:29;94334.34;;;7.80;91.30
6389;BME280;3227;42.654;23.360;2022-12-07T06:39:56;94329.25;;;7.83;90.61
6389;BME280;3227;42.654;23.360;2022-12-07T06:42:23;94328.44;;;7.87;90.60
6389;BME280;3227;42.654;23.360;2022-12-07T06:44:49;94336.94;;;7.87;90.30
6389;BME280;3227;42.654;23.360;2022-12-07T06:47:16;94341.19;;;7.88;90.31
6389;BME280;3227;42.654;23.360;2022-12-07T06:49:43;94332.66;;;7.82;90.56
6389;BME280;3227;42.654;23.360;2022-12-07T06:52:11;94344.69;;;8.02;90.44
6389;BME280;3227;42.654;23.360;2022-12-07T06:54:38;94335.34;;;8.08;89.98
6389;BME280;3227;42.654;23.360;2022-12-07T06:57:05;94342.22;;;8.13;89.59
6389;BME280;3227;42.654;23.360;2022-12-07T06:59:32;94341.38;;;8.14;89.66
6389;BME280;3227;42.654;23.360;2022-12-07T07:01:58;94346.47;;;8.14;89.73
6389;BME280;3227;42.654;23.360;2022-12-07T07:04:25;94343.09;;;8.18;89.74
6389;BME280;3227;42.654;23.360;2022-12-07T07:06:52;94291.00;;;7.86;89.66
6389;BME280;3227;42.654;23.360;2022-12-07T07:09:20;94337.19;;;8.27;89.71
6389;BME280;3227;42.654;23.360;2022-12-07T07:11:47;94337.16;;;8.25;88.96
6389;BME280;3227;42.654;23.360;2022-12-07T07:14:14;94336.41;;;8.31;89.15
6389;BME280;3227;42.654;23.360;2022-12-07T07:16:44;94339.81;;;8.40;89.65
6389;BME280;3227;42.654;23.360;2022-12-07T07:19:11;94344.13;;;8.51;91.53
6389;BME280;3227;42.654;23.360;2022-12-07T07:21:37;94350.09;;;8.50;89.82
6389;BME280;3227;42.654;23.360;2022-12-07T07:24:05;94347.59;;;8.56;89.58
6389;BME280;3227;42.654;23.360;2022-12-07T07:26:33;94349.31;;;8.67;88.81
6389;BME280;3227;42.654;23.360;2022-12-07T07:29:00;94312.63;;;8.50;89.25
6389;BME280;3227;42.654;23.360;2022-12-07T07:31:27;94329.75;;;8.74;88.77
6389;BME280;3227;42.654;23.360;2022-12-07T07:33:54;94351.13;;;8.93;87.73
6389;BME280;3227;42.654;23.360;2022-12-07T07:36:21;94350.31;;;9.07;88.56
6389;BME280;3227;42.654;23.360;2022-12-07T07:38:47;94353.78;;;9.28;86.87
6389;BME280;3227;42.654;23.360;2022-12-07T07:41:14;94363.16;;;9.33;85.21
6389;BME280;3227;42.654;23.360;2022-12-07T07:43:42;94354.63;;;9.33;84.89
6389;BME280;3227;42.654;23.360;2022-12-07T07:46:09;94338.44;;;9.37;85.59
6389;BME280;3227;42.654;23.360;2022-12-07T07:48:36;94352.97;;;9.47;84.84
6389;BME280;3227;42.654;23.360;2022-12-07T07:51:05;94354.66;;;9.51;84.93
6389;BME280;3227;42.654;23.360;2022-12-07T07:53:32;94326.50;;;9.39;85.18
6389;BME280;3227;42.654;23.360;2022-12-07T07:55:59;94346.13;;;9.61;85.22
6389;BME280;3227;42.654;23.360;2022-12-07T07:58:27;94349.56;;;9.77;85.04
6389;BME280;3227;42.654;23.360;2022-12-07T08:00:55;94345.28;;;9.92;83.61
6389;BME280;3227;42.654;23.360;2022-12-07T08:03:22;94358.06;;;10.05;82.76
6389;BME280;3227;42.654;23.360;2022-12-07T08:05:49;94352.97;;;10.18;82.14
6389;BME280;3227;42.654;23.360;2022-12-07T08:08:15;94349.56;;;10.19;81.55
6389;BME280;3227;42.654;23.360;2022-12-07T08:10:42;94350.38;;;10.14;81.13
6389;BME280;3227;42.654;23.360;2022-12-07T08:13:09;94358.06;;;10.11;81.92
6389;BME280;3227;42.654;23.360;2022-12-07T08:15:41;94354.66;;;10.07;81.78
6389;BME280;3227;42.654;23.360;2022-12-07T08:18:19;94354.69;;;10.19;81.74
6389;BME280;3227;42.654;23.360;2022-12-07T08:20:46;94349.53;;;10.28;81.10
6389;BME280;3227;42.654;23.360;2022-12-07T08:23:13;94346.13;;;10.23;80.21
6389;BME280;3227;42.654;23.360;2022-12-07T08:25:39;94351.25;;;10.23;79.81
6389;BME280;3227;42.654;23.360;2022-12-07T08:28:06;94301.78;;;9.92;79.91
6389;BME280;3227;42.654;23.360;2022-12-07T08:30:33;94354.66;;;10.22;79.93
6389;BME280;3227;42.654;23.360;2022-12-07T08:33:00;94341.00;;;10.25;80.65
6389;BME280;3227;42.654;23.360;2022-12-07T08:35:28;94348.66;;;10.29;79.77
6389;BME280;3227;42.654;23.360;2022-12-07T08:37:55;94347.81;;;10.30;79.72
6389;BME280;3227;42.654;23.360;2022-12-07T08:40:23;94327.31;;;10.15;80.62
6389;BME280;3227;42.654;23.360;2022-12-07T08:42:50;94336.72;;;10.22;80.02
6389;BME280;3227;42.654;23.360;2022-12-07T08:45:18;94336.75;;;10.18;79.91
6389;BME280;3227;42.654;23.360;2022-12-07T08:47:49;94332.47;;;10.12;80.44
6389;BME280;3227;42.654;23.360;2022-12-07T08:50:17;94337.59;;;10.12;80.04
6389;BME280;3227;42.654;23.360;2022-12-07T08:52:48;94341.84;;;10.10;79.87
6389;BME280;3227;42.654;23.360;2022-12-07T08:55:16;94345.25;;;10.05;81.10
6389;BME280;3227;42.654;23.360;2022-12-07T08:57:43;94327.34;;;10.06;81.22
6389;BME280;3227;42.654;23.360;2022-12-07T09:00:11;94333.31;;;10.10;81.34
6389;BME280;3227;42.654;23.360;2022-12-07T09:02:38;94323.94;;;10.12;80.85
6389;BME280;3227;42.654;23.360;2022-12-07T09:05:06;94320.50;;;10.08;81.31
6389;BME280;3227;42.654;23.360;2022-12-07T09:07:33;94321.38;;;10.03;80.80
6389;BME280;3227;42.654;23.360;2022-12-07T09:10:02;94333.34;;;10.04;81.28
6389;BME280;3227;42.654;23.360;2022-12-07T09:12:29;94329.91;;;10.02;81.43
6389;BME280;3227;42.654;23.360;2022-12-07T09:14:56;94322.25;;;9.96;81.93
6389;BME280;3227;42.654;23.360;2022-12-07T09:17:23;94296.69;;;9.71;81.69
6389;BME280;3227;42.654;23.360;2022-12-07T09:19:50;94299.25;;;9.79;82.09
6389;BME280;3227;42.654;23.360;2022-12-07T09:22:17;94310.31;;;9.84;82.50
6389;BME280;3227;42.654;23.360;2022-12-07T09:24:43;94298.38;;;9.87;82.17
6389;BME280;3227;42.654;23.360;2022-12-07T09:27:12;94306.03;;;9.84;81.57
6389;BME280;3227;42.654;23.360;2022-12-07T09:29:39;94304.31;;;9.80;82.05
6389;BME280;3227;42.654;23.360;2022-12-07T09:32:06;94298.38;;;9.72;82.08
6389;BME280;3227;42.654;23.360;2022-12-07T09:34:33;94303.50;;;9.75;82.72
6389;BME280;3227;42.654;23.360;2022-12-07T09:37:01;94300.06;;;9.82;82.43
6389;BME280;3227;42.654;23.360;2022-12-07T09:39:29;94283.03;;;9.80;82.86
6389;BME280;3227;42.654;23.360;2022-12-07T09:41:56;94287.28;;;9.96;82.23
6389;BME280;3227;42.654;23.360;2022-12-07T09:44:26;94285.53;;;10.06;81.36
6389;BME280;3227;42.654;23.360;2022-12-07T09:46:53;94288.94;;;10.09;81.41
6389;BME280;3227;42.654;23.360;2022-12-07T09:49:23;94286.34;;;10.14;81.67
6389;BME280;3227;42.654;23.360;2022-12-07T09:52:00;94285.56;;;10.21;81.44
6389;BME280;3227;42.654;23.360;2022-12-07T09:54:29;94275.28;;;10.24;81.74
6389;BME280;3227;42.654;23.360;2022-12-07T09:56:56;94284.66;;;10.26;81.58
6389;BME280;3227;42.654;23.360;2022-12-07T09:59:25;94278.66;;;10.30;80.82
6389;BME280;3227;42.654;23.360;2022-12-07T10:01:52;94274.41;;;10.37;81.09
6389;BME280;3227;42.654;23.360;2022-12-07T10:04:20;94266.69;;;10.43;81.33
6389;BME280;3227;42.654;23.360;2022-12-07T10:06:48;94241.09;;;10.33;79.77
6389;BME280;3227;42.654;23.360;2022-12-07T10:09:18;94258.13;;;10.47;79.61
6389;BME280;3227;42.654;23.360;2022-12-07T10:12:03;94222.34;;;10.29;79.24
6389;BME280;3227;42.654;23.360;2022-12-07T10:14:33;94258.13;;;10.52;79.43
6389;BME280;3227;42.654;23.360;2022-12-07T10:17:01;94254.69;;;10.50;79.38
6389;BME280;3227;42.654;23.360;2022-12-07T10:19:30;94248.72;;;10.48;79.54
6389;BME280;3227;42.654;23.360;2022-12-07T10:22:03;94251.28;;;10.52;79.33
6389;BME280;3227;42.654;23.360;2022-12-07T10:24:30;94218.06;;;10.33;79.84
6389;BME280;3227;42.654;23.360;2022-12-07T10:26:57;94241.84;;;10.59;79.66
6389;BME280;3227;42.654;23.360;2022-12-07T10:29:29;94230.72;;;10.67;78.99
6389;BME280;3227;42.654;23.360;2022-12-07T10:31:59;94216.09;;;10.85;77.95
6389;BME280;3227;42.654;23.360;2022-12-07T10:34:28;94221.91;;;11.11;77.59
6389;BME280;3227;42.654;23.360;2022-12-07T10:37:12;94221.78;;;11.23;76.00
6389;BME280;3227;42.654;23.360;2022-12-07T10:39:41;94220.13;;;11.16;75.93
6389;BME280;3227;42.654;23.360;2022-12-07T10:42:17;94224.44;;;11.13;76.36
6389;BME280;3227;42.654;23.360;2022-12-07T10:44:44;94209.16;;;11.00;76.52
6389;BME280;3227;42.654;23.360;2022-12-07T10:47:34;94210.84;;;11.03;77.32
6389;BME280;3227;42.654;23.360;2022-12-07T10:50:17;94210.84;;;11.03;76.87
6389;BME280;3227;42.654;23.360;2022-12-07T10:53:01;94205.72;;;11.03;76.88
6389;BME280;3227;42.654;23.360;2022-12-07T10:55:45;94183.59;;;10.88;77.02
6389;BME280;3227;42.654;23.360;2022-12-07T10:58:30;94200.50;;;11.14;76.70
6389;BME280;3227;42.654;23.360;2022-12-07T11:01:04;94191.06;;;11.17;75.70
6389;BME280;3227;42.654;23.360;2022-12-07T11:03:44;94180.88;;;11.11;75.42
6389;BME280;3227;42.654;23.360;2022-12-07T11:06:23;94167.22;;;11.04;75.41
6389;BME280;3227;42.654;23.360;2022-12-07T11:09:00;94164.78;;;10.91;76.40
6389;BME280;3227;42.654;23.360;2022-12-07T11:11:33;94123.16;;;10.55;76.17
6389;BME280;3227;42.654;23.360;2022-12-07T11:14:06;94176.72;;;10.92;76.81
6389;BME280;3227;42.654;23.360;2022-12-07T11:16:48;94188.66;;;10.96;76.26
6389;BME280;3227;42.654;23.360;2022-12-07T11:19:39;94166.47;;;10.92;75.57
6389;BME280;3227;42.654;23.360;2022-12-07T11:22:20;94183.41;;;11.14;75.07
6389;BME280;3227;42.654;23.360;2022-12-07T11:24:55;94176.53;;;11.18;74.27
6389;BME280;3227;42.654;23.360;2022-12-07T11:27:33;94128.03;;;10.92;74.40
6389;BME280;3227;42.654;23.360;2022-12-07T11:30:10;94166.41;;;11.01;75.51
6389;BME280;3227;42.654;23.360;2022-12-07T11:33:11;94163.00;;;10.97;75.53
6389;BME280;3227;42.654;23.360;2022-12-07T11:35:54;94145.06;;;11.02;74.97
6389;BME280;3227;42.654;23.360;2022-12-07T11:38:30;94145.91;;;11.01;74.93
6389;BME280;3227;42.654;23.360;2022-12-07T11:41:02;94148.47;;;11.01;75.12
6389;BME280;3227;42.654;23.360;2022-12-07T11:43:50;94147.56;;;11.06;75.39
6389;BME280;3227;42.654;23.360;2022-12-07T11:46:20;94150.06;;;11.16;75.86
6389;BME280;3227;42.654;23.360;2022-12-07T11:48:55;94113.44;;;11.03;74.45
6389;BME280;3227;42.654;23.360;2022-12-07T11:51:27;94136.38;;;11.15;74.97
6389;BME280;3227;42.654;23.360;2022-12-07T11:53:59;94143.09;;;11.30;73.99
6389;BME280;3227;42.654;23.360;2022-12-07T11:56:35;94131.09;;;11.32;73.91
6389;BME280;3227;42.654;23.360;2022-12-07T11:59:08;94082.59;;;11.11;74.43
6389;BME280;3227;42.654;23.360;2022-12-07T12:01:48;94131.66;;;11.61;73.37
6389;BME280;3227;42.654;23.360;2022-12-07T12:04:26;94130.75;;;11.67;72.64
6389;BME280;3227;42.654;23.360;2022-12-07T12:06:57;94132.50;;;11.63;72.99
6389;BME280;3227;42.654;23.360;2022-12-07T12:09:26;94125.72;;;11.58;74.12
6389;BME280;3227;42.654;23.360;2022-12-07T12:15:15;94103.84;;;11.22;73.59
6389;BME280;3227;42.654;23.360;2022-12-07T12:18:03;94113.06;;;11.38;73.88
6389;BME280;3227;42.654;23.360;2022-12-07T12:20:35;94102.00;;;11.36;72.86
6389;BME280;3227;42.654;23.360;2022-12-07T12:23:10;94076.63;;;11.10;74.05
6389;BME280;3227;42.654;23.360;2022-12-07T12:25:42;94080.06;;;11.04;74.12
6389;BME280;3227;42.654;23.360;2022-12-07T12:28:22;94108.00;;;11.33;73.83
6389;BME280;3227;42.654;23.360;2022-12-07T12:31:09;94050.03;;;11.17;73.67
6389;BME280;3227;42.654;23.360;2022-12-07T12:33:38;94096.75;;;11.47;72.50
6389;BME280;3227;42.654;23.360;2022-12-07T12:36:24;94098.53;;;11.38;72.06
6389;BME280;3227;42.654;23.360;2022-12-07T12:41:57;94084.16;;;11.22;73.82
6389;BME280;3227;42.654;23.360;2022-12-07T12:47:52;94075.16;;;10.82;75.96
6389;BME280;3227;42.654;23.360;2022-12-07T12:50:21;94079.47;;;10.75;76.55
6389;BME280;3227;42.654;23.360;2022-12-07T12:52:56;94085.34;;;10.88;76.27
6389;BME280;3227;42.654;23.360;2022-12-07T12:55:52;94083.53;;;11.03;74.80
6389;BME280;3227;42.654;23.360;2022-12-07T12:58:37;94095.41;;;11.09;75.44
6389;BME280;3227;42.654;23.360;2022-12-07T13:04:47;94054.16;;;11.30;73.90
6389;BME280;3227;42.654;23.360;2022-12-07T13:10:28;94077.66;;;11.75;72.62
6389;BME280;3227;42.654;23.360;2022-12-07T13:13:00;94077.50;;;11.87;70.40
6389;BME280;3227;42.654;23.360;2022-12-07T13:15:36;94050.56;;;11.47;71.16
6389;BME280;3227;42.654;23.360;2022-12-07T13:18:24;94086.47;;;11.50;72.79
6389;BME280;3227;42.654;23.360;2022-12-07T13:20:55;94086.41;;;11.54;72.85
6389;BME280;3227;42.654;23.360;2022-12-07T13:23:29;94077.75;;;11.61;72.56
6389;BME280;3227;42.654;23.360;2022-12-07T13:26:06;94060.78;;;11.51;72.49
6389;BME280;3227;42.654;23.360;2022-12-07T13:28:37;94087.06;;;11.76;72.07
6389;BME280;3227;42.654;23.360;2022-12-07T13:31:24;94064.03;;;11.65;73.10
6389;BME280;3227;42.654;23.360;2022-12-07T13:33:55;94080.97;;;11.85;72.95
6389;BME280;3227;42.654;23.360;2022-12-07T13:36:23;94081.66;;;11.96;71.76
6389;BME280;3227;42.654;23.360;2022-12-07T13:38:56;94079.06;;;12.00;72.06
6389;BME280;3227;42.654;23.360;2022-12-07T13:41:24;94045.81;;;11.90;72.20
6389;BME280;3227;42.654;23.360;2022-12-07T13:43:55;94074.69;;;12.05;72.47
6389;BME280;3227;42.654;23.360;2022-12-07T13:46:42;94043.22;;;11.91;71.75
6389;BME280;3227;42.654;23.360;2022-12-07T13:49:18;94073.09;;;11.98;72.94
6389;BME280;3227;42.654;23.360;2022-12-07T13:51:46;94075.63;;;12.00;73.14
6389;BME280;3227;42.654;23.360;2022-12-07T13:54:14;94025.47;;;11.70;72.28